Terminal Aerodrome Forecast
Issued by NWS Sterling, VA

Current Version | Previous Version | Graphics & Text | Print | Product List | Glossary On
Versions: 1 2 3 4 5 6 7 8 9 10 11 12 13 14 15 16 17 18 19 20 21 22 23
000
FTUS41 KLWX 260527
TAFDCA
TAF
KDCA 260527Z 2606/2706 25006KT 5SM BR SCT100
     FM261000 24006KT P6SM BKN060
     FM261300 26010G18KT P6SM BKN060
     FM262000 30015G24KT P6SM BKN045
     FM262300 30012KT P6SM SCT045
     FM270300 31006KT P6SM SCT250=

USA.gov is the U.S. government's official web portal to all federal, state and local government web resources and services.